Time;durP1;ratioP1;P1;durP2;ratioP2;P2;SDS_P1;SDS_P2;PMS_P1;PMS_P2;Temp;Humidity;BMP_temperature;BMP_pressure;BME280_temperature;BME280_humidity;BME280_pressure;Samples;Min_cycle;Max_cycle;Signal;HPM_P1;HPM_P2
2021/06/05 00:01:24;;;;;;;8.00;6.45;;;18.50;76.00;;;;;;3556574;40;20044;-67
2021/06/05 00:03:52;;;;;;;7.45;6.20;;;18.40;75.90;;;;;;3549326;40;20171;-67
2021/06/05 00:06:18;;;;;;;8.07;6.43;;;18.40;76.40;;;;;;3550324;40;20049;-67
2021/06/05 00:08:45;;;;;;;7.55;6.15;;;18.30;76.90;;;;;;3558240;40;20034;-67
2021/06/05 00:11:12;;;;;;;8.80;6.47;;;18.20;77.10;;;;;;3552037;40;20022;-67
2021/06/05 00:13:42;;;;;;;7.32;6.28;;;18.20;77.20;;;;;;3553775;40;20034;-67
2021/06/05 00:16:15;;;;;;;9.85;7.35;;;18.20;77.10;;;;;;3553440;40;20041;-67
2021/06/05 00:18:42;;;;;;;12.60;7.22;;;18.20;77.00;;;;;;3553179;40;20033;-67
2021/06/05 00:21:08;;;;;;;8.85;6.20;;;18.10;76.90;;;;;;3551734;40;20084;-67
2021/06/05 00:23:34;;;;;;;8.70;6.85;;;18.10;77.00;;;;;;3550606;40;20104;-67
2021/06/05 00:26:00;;;;;;;8.07;7.28;;;18.10;77.20;;;;;;3550593;40;20077;-67
2021/06/05 00:28:26;;;;;;;9.27;7.70;;;18.00;76.90;;;;;;3551039;40;20034;-67
2021/06/05 00:30:52;;;;;;;8.00;7.20;;;18.10;76.90;;;;;;3553847;40;20041;-67
2021/06/05 00:33:19;;;;;;;10.75;7.35;;;18.00;76.90;;;;;;3555358;40;20045;-67
2021/06/05 00:35:45;;;;;;;9.73;7.07;;;17.90;76.70;;;;;;3557110;40;20041;-67
2021/06/05 00:38:11;;;;;;;7.57;6.57;;;18.00;76.90;;;;;;3557371;40;20032;-67
2021/06/05 00:40:41;;;;;;;9.68;7.18;;;18.00;76.80;;;;;;3550718;40;20105;-67
2021/06/05 00:43:07;;;;;;;7.43;6.50;;;18.00;76.80;;;;;;3558549;40;20049;-67
2021/06/05 00:45:37;;;;;;;6.75;5.82;;;18.00;77.10;;;;;;3551881;40;20033;-68
2021/06/05 00:48:04;;;;;;;7.03;6.22;;;18.00;77.30;;;;;;3553874;40;20053;-67
2021/06/05 00:50:34;;;;;;;7.78;6.10;;;18.00;77.20;;;;;;3553197;40;20038;-67
2021/06/05 00:53:02;;;;;;;8.45;6.50;;;18.00;77.10;;;;;;3563182;40;20057;-67
2021/06/05 00:55:30;;;;;;;7.93;6.57;;;18.00;77.20;;;;;;3564763;40;20048;-67
2021/06/05 00:57:56;;;;;;;10.05;7.28;;;17.90;77.20;;;;;;3549033;40;20044;-67
2021/06/05 01:00:40;;;;;;;7.40;6.70;;;17.80;77.50;;;;;;3551733;40;20058;-67
2021/06/05 01:03:08;;;;;;;8.30;6.72;;;17.80;77.60;;;;;;3558353;40;20026;-67
2021/06/05 01:05:38;;;;;;;9.25;6.53;;;17.80;77.60;;;;;;3559509;40;20066;-67
2021/06/05 01:08:33;;;;;;;7.80;6.35;;;17.80;77.90;;;;;;3560624;40;20038;-67
2021/06/05 01:11:27;;;;;;;8.93;6.72;;;17.70;78.00;;;;;;3555902;40;20703;-67
2021/06/05 01:14:27;;;;;;;8.27;6.78;;;17.70;78.20;;;;;;3552243;40;20190;-68
2021/06/05 01:16:59;;;;;;;7.65;6.13;;;17.60;78.10;;;;;;3552115;40;20134;-67
2021/06/05 01:19:49;;;;;;;7.60;6.82;;;17.60;78.20;;;;;;3559888;40;20034;-68
2021/06/05 01:22:39;;;;;;;9.82;7.05;;;17.50;78.20;;;;;;3559723;40;20719;-68
2021/06/05 01:25:26;;;;;;;7.75;6.63;;;17.50;78.10;;;;;;3557897;40;20041;-68
2021/06/05 01:28:06;;;;;;;8.45;6.82;;;17.50;78.30;;;;;;3563839;40;20119;-68
2021/06/05 01:30:55;;;;;;;8.23;6.60;;;17.50;77.80;;;;;;3561101;40;20054;-67
2021/06/05 01:33:26;;;;;;;8.23;6.88;;;17.40;78.00;;;;;;3564345;40;20771;-67
2021/06/05 01:35:59;;;;;;;8.82;6.60;;;17.40;78.30;;;;;;3558713;40;20042;-67
2021/06/05 01:38:28;;;;;;;9.45;6.68;;;17.40;78.00;;;;;;3551549;40;20034;-67
2021/06/05 01:40:54;;;;;;;6.88;6.00;;;17.40;77.80;;;;;;3566153;40;20415;-68
2021/06/05 01:43:25;;;;;;;9.95;7.13;;;17.40;77.80;;;;;;3564910;40;20052;-68
2021/06/05 01:45:55;;;;;;;8.23;6.40;;;17.40;77.60;;;;;;3560448;40;20092;-68
2021/06/05 01:48:23;;;;;;;8.95;6.90;;;17.40;77.60;;;;;;3562783;40;20045;-67
2021/06/05 01:50:51;;;;;;;7.75;6.65;;;17.40;77.60;;;;;;3553449;40;20029;-68
2021/06/05 01:53:22;;;;;;;7.50;6.18;;;17.30;77.50;;;;;;3552593;40;20136;-68
2021/06/05 01:55:57;;;;;;;6.93;5.78;;;17.30;77.90;;;;;;3561278;40;20135;-67
2021/06/05 01:58:28;;;;;;;7.03;6.00;;;17.30;78.00;;;;;;3562856;40;20273;-67
2021/06/05 02:01:05;;;;;;;7.05;6.35;;;17.30;78.30;;;;;;3561296;40;20061;-67
2021/06/05 02:03:38;;;;;;;7.53;6.18;;;17.30;78.70;;;;;;3553382;40;20058;-67
2021/06/05 02:06:21;;;;;;;8.23;6.55;;;17.20;78.50;;;;;;3554465;40;20033;-67
2021/06/05 02:08:48;;;;;;;7.05;6.35;;;17.20;78.30;;;;;;3554232;40;20046;-68
2021/06/05 02:11:17;;;;;;;9.98;7.35;;;17.20;78.10;;;;;;3552508;40;20151;-68
2021/06/05 02:13:51;;;;;;;8.20;6.95;;;17.20;78.20;;;;;;3550180;40;20062;-67
2021/06/05 02:16:25;;;;;;;8.00;6.93;;;17.20;78.10;;;;;;3551385;40;20359;-67
2021/06/05 02:18:55;;;;;;;7.75;6.57;;;17.10;78.50;;;;;;3559226;40;20990;-67
2021/06/05 02:21:34;;;;;;;8.10;6.30;;;17.00;78.70;;;;;;3556825;40;20319;-67
2021/06/05 02:24:03;;;;;;;7.30;6.38;;;17.00;79.10;;;;;;3561565;40;20139;-68
2021/06/05 02:26:29;;;;;;;7.75;6.40;;;16.90;79.30;;;;;;3554267;40;20045;-67
2021/06/05 02:28:59;;;;;;;8.93;6.50;;;16.90;79.30;;;;;;3559452;40;20101;-67
2021/06/05 02:31:29;;;;;;;7.15;6.10;;;16.90;79.40;;;;;;3564853;40;20049;-67
2021/06/05 02:33:59;;;;;;;8.10;6.63;;;16.80;79.50;;;;;;3565115;40;20038;-68
2021/06/05 02:36:25;;;;;;;10.63;7.18;;;16.90;79.60;;;;;;3551966;40;20118;-67
2021/06/05 02:38:53;;;;;;;8.32;6.75;;;16.90;79.50;;;;;;3550731;40;20037;-67
2021/06/05 02:41:25;;;;;;;9.13;6.25;;;16.80;79.30;;;;;;3555458;40;20052;-67
2021/06/05 02:43:54;;;;;;;9.98;7.20;;;16.80;79.10;;;;;;3561541;40;20044;-67
2021/06/05 02:46:33;;;;;;;8.70;6.50;;;16.80;79.20;;;;;;3552423;40;20046;-68
2021/06/05 02:49:06;;;;;;;8.48;6.45;;;16.80;79.80;;;;;;3558639;40;20041;-67
2021/06/05 02:51:42;;;;;;;7.18;6.07;;;16.80;79.50;;;;;;3560993;40;20082;-67
2021/06/05 02:54:14;;;;;;;8.60;6.93;;;16.80;79.20;;;;;;3553552;40;20049;-67
2021/06/05 02:56:40;;;;;;;8.48;6.95;;;16.80;79.20;;;;;;3561567;40;20033;-67
2021/06/05 02:59:07;;;;;;;8.00;5.93;;;16.80;79.20;;;;;;3555927;40;20061;-67
2021/06/05 03:01:40;;;;;;;8.20;6.70;;;16.80;79.20;;;;;;3556270;40;20065;-67
2021/06/05 03:04:07;;;;;;;8.95;5.97;;;16.70;79.30;;;;;;3554185;40;20065;-67
2021/06/05 03:06:33;;;;;;;8.52;6.10;;;16.70;79.50;;;;;;3552450;40;20198;-67
2021/06/05 03:09:02;;;;;;;7.28;6.57;;;16.70;79.70;;;;;;3558105;40;20021;-67
2021/06/05 03:11:28;;;;;;;8.50;6.55;;;16.70;79.70;;;;;;3557928;40;20033;-67
2021/06/05 03:13:56;;;;;;;10.63;6.55;;;16.70;80.00;;;;;;3559069;40;20034;-67
2021/06/05 03:16:23;;;;;;;9.07;6.40;;;16.70;79.40;;;;;;3562886;40;20037;-67
2021/06/05 03:18:55;;;;;;;5.95;5.35;;;16.70;79.70;;;;;;3556137;40;20080;-67
2021/06/05 03:21:21;;;;;;;8.38;6.13;;;16.70;79.70;;;;;;3552860;40;20046;-67
2021/06/05 03:23:51;;;;;;;7.85;6.47;;;16.70;79.50;;;;;;3558813;40;20046;-67
2021/06/05 03:26:28;;;;;;;10.00;6.93;;;16.70;78.70;;;;;;3552928;40;20042;-67
2021/06/05 03:28:54;;;;;;;6.90;6.07;;;16.70;79.00;;;;;;3551618;40;20037;-67
2021/06/05 03:31:22;;;;;;;6.13;5.35;;;16.70;79.20;;;;;;3551460;40;20038;-67
2021/06/05 03:33:49;;;;;;;8.07;5.68;;;16.70;79.10;;;;;;3551609;40;20074;-68
2021/06/05 03:36:18;;;;;;;8.43;6.40;;;16.70;79.20;;;;;;3553477;40;20133;-68
2021/06/05 03:38:45;;;;;;;6.38;5.68;;;16.80;79.00;;;;;;3553395;40;20042;-68
2021/06/05 03:41:21;;;;;;;6.50;5.75;;;16.80;79.10;;;;;;3560802;40;20037;-67
2021/06/05 03:43:47;;;;;;;6.68;5.63;;;16.80;79.40;;;;;;3559133;40;20139;-67
2021/06/05 03:46:13;;;;;;;7.95;6.30;;;16.80;79.10;;;;;;3558802;40;20123;-67
2021/06/05 03:48:39;;;;;;;10.23;6.22;;;16.80;79.10;;;;;;3558106;40;20076;-67
2021/06/05 03:51:09;;;;;;;6.05;5.28;;;16.90;79.00;;;;;;3554225;40;20045;-68
2021/06/05 03:53:37;;;;;;;8.27;5.40;;;16.90;79.20;;;;;;3556223;40;20471;-68
2021/06/05 03:56:04;;;;;;;9.48;6.00;;;16.90;79.40;;;;;;3561476;40;20034;-68
2021/06/05 03:58:41;;;;;;;7.63;5.75;;;16.90;78.30;;;;;;3554619;40;20026;-67
2021/06/05 04:01:10;;;;;;;7.53;5.82;;;16.90;78.40;;;;;;3552559;40;20041;-67
2021/06/05 04:03:36;;;;;;;6.22;5.35;;;17.00;77.40;;;;;;3557962;40;20029;-68
2021/06/05 04:06:03;;;;;;;7.07;5.75;;;17.00;77.40;;;;;;3555467;40;20324;-68
2021/06/05 04:08:28;;;;;;;9.40;6.43;;;17.10;77.40;;;;;;3558244;40;20116;-67
2021/06/05 04:10:54;;;;;;;8.68;6.47;;;17.10;77.50;;;;;;3555723;40;20022;-68
2021/06/05 04:13:20;;;;;;;6.75;6.03;;;17.20;77.00;;;;;;3555929;40;20041;-68
2021/06/05 04:15:46;;;;;;;8.18;5.80;;;17.20;77.40;;;;;;3554116;40;20026;-67
2021/06/05 04:18:14;;;;;;;6.25;5.65;;;17.30;76.50;;;;;;3555938;40;20315;-67
2021/06/05 04:20:43;;;;;;;6.82;5.53;;;17.30;76.90;;;;;;3564865;40;20038;-68
2021/06/05 04:23:10;;;;;;;8.27;5.50;;;17.40;77.10;;;;;;3564850;40;20088;-68
2021/06/05 04:25:37;;;;;;;8.43;6.00;;;17.50;75.90;;;;;;3549887;40;20049;-67
2021/06/05 04:28:06;;;;;;;8.57;6.25;;;17.50;76.60;;;;;;3551173;40;20579;-67
2021/06/05 04:30:34;;;;;;;6.15;5.22;;;17.60;76.20;;;;;;3552244;40;20026;-68
2021/06/05 04:33:00;;;;;;;5.93;5.32;;;17.70;76.90;;;;;;3554052;40;20037;-68
2021/06/05 04:35:26;;;;;;;6.45;5.50;;;17.70;76.50;;;;;;3555485;40;20036;-68
2021/06/05 04:37:52;;;;;;;6.15;5.53;;;17.70;75.70;;;;;;3552968;40;20040;-67
2021/06/05 04:40:20;;;;;;;7.10;5.45;;;17.70;76.50;;;;;;3552131;40;20404;-67
2021/06/05 04:42:49;;;;;;;6.80;5.63;;;17.80;75.80;;;;;;3549191;40;20030;-67
2021/06/05 04:45:15;;;;;;;7.55;5.68;;;17.80;75.60;;;;;;3552435;40;20331;-67
2021/06/05 04:47:40;;;;;;;6.90;5.50;;;17.80;75.20;;;;;;3556614;40;20061;-67
2021/06/05 04:50:09;;;;;;;6.70;5.82;;;17.90;75.90;;;;;;3555492;40;20066;-67
2021/06/05 04:52:35;;;;;;;7.30;5.55;;;17.90;76.00;;;;;;3553634;40;20404;-67
2021/06/05 04:55:00;;;;;;;6.47;5.45;;;17.90;75.50;;;;;;3552424;40;20037;-68
2021/06/05 04:57:26;;;;;;;8.13;5.78;;;18.00;74.10;;;;;;3551312;40;20037;-67
2021/06/05 04:59:52;;;;;;;7.68;5.40;;;18.10;73.50;;;;;;3559290;40;20037;-68
2021/06/05 05:02:18;;;;;;;6.72;5.15;;;18.10;74.30;;;;;;3551102;40;20284;-67
2021/06/05 05:04:43;;;;;;;7.75;6.00;;;18.20;74.90;;;;;;3564217;40;20089;-67
2021/06/05 05:07:12;;;;;;;9.77;5.80;;;18.20;73.10;;;;;;3554366;40;20132;-67
2021/06/05 05:09:38;;;;;;;6.53;5.68;;;18.20;73.50;;;;;;3551541;40;20049;-67
2021/06/05 05:12:05;;;;;;;7.93;5.55;;;18.30;73.50;;;;;;3551604;40;20709;-68
2021/06/05 05:14:32;;;;;;;7.15;5.32;;;18.40;74.50;;;;;;3554770;40;20046;-67
2021/06/05 05:16:58;;;;;;;7.35;5.68;;;18.50;74.30;;;;;;3557966;40;20049;-67
2021/06/05 05:19:24;;;;;;;6.22;5.25;;;18.60;73.70;;;;;;3563572;40;20314;-67
2021/06/05 05:21:50;;;;;;;7.72;5.28;;;18.90;71.90;;;;;;3556468;40;20102;-68
2021/06/05 05:24:16;;;;;;;6.28;4.88;;;19.20;69.80;;;;;;3554851;40;20034;-67
2021/06/05 05:26:41;;;;;;;6.00;5.35;;;19.40;69.80;;;;;;3557975;40;105664;-68
2021/06/05 05:29:07;;;;;;;9.32;4.70;;;19.40;67.40;;;;;;3555027;40;20025;-68
2021/06/05 05:31:33;;;;;;;6.22;4.80;;;19.50;67.40;;;;;;3555415;40;20038;-68
2021/06/05 05:34:00;;;;;;;7.95;5.32;;;19.50;66.70;;;;;;3561852;40;20042;-68
2021/06/05 05:36:31;;;;;;;6.45;5.15;;;19.50;67.10;;;;;;3551555;40;20026;-67
2021/06/05 05:38:58;;;;;;;7.35;5.10;;;19.60;68.80;;;;;;3550937;40;20038;-67
2021/06/05 05:41:25;;;;;;;5.80;4.78;;;19.70;69.00;;;;;;3554318;40;20045;-68
2021/06/05 05:43:52;;;;;;;5.90;4.75;;;19.80;69.00;;;;;;3555082;40;20030;-67
2021/06/05 05:46:18;;;;;;;8.73;4.88;;;20.00;68.20;;;;;;3554411;40;20078;-68
2021/06/05 05:48:44;;;;;;;7.40;4.70;;;20.10;65.80;;;;;;3553462;40;20046;-67
2021/06/05 05:51:14;;;;;;;5.82;4.38;;;20.20;65.70;;;;;;3554798;40;20036;-68
2021/06/05 05:53:41;;;;;;;7.07;4.88;;;20.30;66.30;;;;;;3550710;40;20034;-67
2021/06/05 05:56:09;;;;;;;5.82;4.78;;;20.30;64.60;;;;;;3550820;40;20580;-68
2021/06/05 05:58:39;;;;;;;6.80;4.70;;;20.40;65.40;;;;;;3554329;40;20340;-68
2021/06/05 06:01:07;;;;;;;5.55;4.65;;;20.50;64.20;;;;;;3556845;40;20307;-67
2021/06/05 06:03:33;;;;;;;6.75;4.20;;;20.50;62.90;;;;;;3555655;40;20033;-68
2021/06/05 06:05:59;;;;;;;4.70;3.75;;;20.70;62.90;;;;;;3555249;40;20029;-68
2021/06/05 06:08:25;;;;;;;5.82;4.05;;;20.80;63.20;;;;;;3556262;40;20045;-68
2021/06/05 06:10:51;;;;;;;5.25;4.18;;;21.10;63.90;;;;;;3564476;40;20265;-68
2021/06/05 06:13:17;;;;;;;4.82;3.90;;;21.40;63.10;;;;;;3558701;40;20042;-68
2021/06/05 06:15:43;;;;;;;4.72;4.22;;;21.70;61.20;;;;;;3549850;40;20038;-68
2021/06/05 06:18:12;;;;;;;4.88;4.13;;;21.90;59.80;;;;;;3551654;40;20036;-68
2021/06/05 06:20:43;;;;;;;5.07;4.47;;;22.20;58.60;;;;;;3551410;40;20040;-68
2021/06/05 06:23:10;;;;;;;4.95;3.85;;;22.20;58.70;;;;;;3552675;40;20054;-68
2021/06/05 06:25:39;;;;;;;5.80;4.00;;;22.20;59.00;;;;;;3554606;40;20054;-68
2021/06/05 06:28:09;;;;;;;6.40;4.40;;;22.20;58.90;;;;;;3555902;40;20401;-68
2021/06/05 06:30:36;;;;;;;5.55;3.80;;;22.20;57.80;;;;;;3550884;40;20045;-68
2021/06/05 06:33:05;;;;;;;5.53;4.05;;;22.30;58.10;;;;;;3557997;40;20041;-69
2021/06/05 06:35:33;;;;;;;4.45;3.83;;;22.30;57.60;;;;;;3554097;40;20030;-69
2021/06/05 06:37:59;;;;;;;5.70;3.70;;;22.30;58.10;;;;;;3553067;40;20399;-65
2021/06/05 06:40:30;;;;;;;7.75;4.07;;;22.40;56.90;;;;;;3556771;40;20568;-67
2021/06/05 06:42:56;;;;;;;4.15;3.75;;;22.40;58.20;;;;;;3555104;40;20052;-67
2021/06/05 06:45:22;;;;;;;5.05;3.90;;;22.50;57.60;;;;;;3553789;40;20100;-67
2021/06/05 06:47:48;;;;;;;6.10;4.55;;;22.50;57.70;;;;;;3554802;40;20014;-67
2021/06/05 06:50:16;;;;;;;4.35;3.88;;;22.60;58.20;;;;;;3558206;40;20120;-66
2021/06/05 06:52:43;;;;;;;4.57;4.00;;;22.70;57.90;;;;;;3548542;40;20510;-67
2021/06/05 06:55:09;;;;;;;6.53;4.05;;;22.80;57.30;;;;;;3555648;40;20034;-68
2021/06/05 06:57:36;;;;;;;11.38;3.30;;;22.80;57.50;;;;;;3554248;40;20419;-68
2021/06/05 07:00:05;;;;;;;4.30;3.50;;;23.00;56.70;;;;;;3553379;40;20059;-67
2021/06/05 07:02:31;;;;;;;6.25;4.03;;;23.10;56.60;;;;;;3552826;40;20069;-67
2021/06/05 07:04:57;;;;;;;6.50;4.60;;;23.10;55.70;;;;;;3553519;40;20030;-67
2021/06/05 07:07:22;;;;;;;4.20;3.28;;;23.20;56.90;;;;;;3550560;40;20124;-67
2021/06/05 07:09:48;;;;;;;6.82;4.72;;;23.20;56.30;;;;;;3549922;40;20608;-68
2021/06/05 07:12:14;;;;;;;6.00;4.22;;;23.30;55.60;;;;;;3554695;40;20033;-65
2021/06/05 07:14:40;;;;;;;5.60;4.35;;;23.30;54.80;;;;;;3552555;40;20401;-65
2021/06/05 07:17:07;;;;;;;3.47;3.17;;;23.30;55.00;;;;;;3552890;40;20021;-68
2021/06/05 07:19:33;;;;;;;4.40;3.65;;;23.30;55.30;;;;;;3552590;40;20061;-67
2021/06/05 07:22:01;;;;;;;3.85;3.30;;;23.40;54.00;;;;;;3554951;40;20034;-67
2021/06/05 07:24:26;;;;;;;3.67;3.15;;;23.50;54.10;;;;;;3555738;40;20654;-68
2021/06/05 07:26:52;;;;;;;6.13;3.47;;;23.60;53.20;;;;;;3555768;40;20037;-68
2021/06/05 07:29:18;;;;;;;4.05;3.22;;;23.70;53.90;;;;;;3556800;40;20041;-68
2021/06/05 07:31:50;;;;;;;5.03;3.60;;;23.70;52.40;;;;;;3556219;40;20136;-67
2021/06/05 07:34:21;;;;;;;5.50;3.10;;;23.80;52.90;;;;;;3554010;40;20042;-68
2021/06/05 07:36:51;;;;;;;3.88;2.92;;;23.90;52.70;;;;;;3555757;40;20130;-68
2021/06/05 07:39:20;;;;;;;3.83;3.20;;;24.00;52.50;;;;;;3553915;40;20131;-68
2021/06/05 07:41:47;;;;;;;3.15;2.70;;;24.20;52.70;;;;;;3553944;40;20029;-68
2021/06/05 07:44:13;;;;;;;4.95;2.95;;;24.10;51.10;;;;;;3553342;40;20713;-68
2021/06/05 07:46:48;;;;;;;4.75;2.75;;;24.20;51.30;;;;;;3551607;40;20042;-68
2021/06/05 07:49:15;;;;;;;5.93;3.00;;;24.20;50.80;;;;;;3552779;40;20041;-68
2021/06/05 07:51:41;;;;;;;4.93;2.50;;;24.20;50.50;;;;;;3552482;40;20150;-68
2021/06/05 07:54:08;;;;;;;4.90;3.10;;;24.40;49.60;;;;;;3554991;40;20041;-68
2021/06/05 07:56:35;;;;;;;3.00;2.70;;;24.40;49.80;;;;;;3555683;40;20038;-68
2021/06/05 07:59:02;;;;;;;3.75;3.00;;;24.50;49.50;;;;;;3554766;40;20037;-68
2021/06/05 08:01:28;;;;;;;5.45;2.95;;;24.60;49.40;;;;;;3553924;40;20026;-68
2021/06/05 08:03:53;;;;;;;5.68;3.20;;;24.70;50.10;;;;;;3551226;40;20038;-68
2021/06/05 08:06:20;;;;;;;4.50;3.05;;;24.80;50.60;;;;;;3551754;40;20138;-69
2021/06/05 08:08:47;;;;;;;3.42;2.90;;;24.80;49.10;;;;;;3558644;40;20049;-68
2021/06/05 08:11:13;;;;;;;5.80;3.58;;;24.90;49.40;;;;;;3556101;40;20694;-67
2021/06/05 08:13:39;;;;;;;3.13;2.70;;;24.90;48.60;;;;;;3555451;40;20045;-68
2021/06/05 08:16:05;;;;;;;4.03;2.88;;;24.90;48.00;;;;;;3553457;40;20030;-68
2021/06/05 08:18:31;;;;;;;3.63;2.92;;;24.90;48.50;;;;;;3551880;40;20103;-68
2021/06/05 08:21:00;;;;;;;6.15;3.10;;;25.00;48.40;;;;;;3550711;40;20316;-68
2021/06/05 08:23:29;;;;;;;6.30;2.97;;;25.00;48.50;;;;;;3552118;40;20036;-68
2021/06/05 08:25:56;;;;;;;3.22;2.92;;;25.10;46.90;;;;;;3553666;40;20046;-68
2021/06/05 08:28:23;;;;;;;4.18;2.45;;;25.10;47.50;;;;;;3550990;40;20046;-68
2021/06/05 08:30:51;;;;;;;4.13;2.90;;;25.10;47.10;;;;;;3553639;40;20029;-68
2021/06/05 08:33:18;;;;;;;3.35;2.60;;;25.10;47.20;;;;;;3554625;40;20045;-69
2021/06/05 08:35:45;;;;;;;3.20;2.53;;;25.30;46.80;;;;;;3552195;40;20030;-68
2021/06/05 08:38:13;;;;;;;3.72;2.90;;;25.30;46.90;;;;;;3555941;40;20323;-68
2021/06/05 08:40:56;;;;;;;5.28;2.60;;;25.50;47.30;;;;;;3558196;40;20026;-68
2021/06/05 08:43:49;;;;;;;4.53;2.90;;;25.60;47.10;;;;;;3553284;40;20036;-68
2021/06/05 08:46:22;;;;;;;2.55;2.35;;;25.70;46.60;;;;;;3555018;40;20601;-67
2021/06/05 08:48:48;;;;;;;2.70;2.50;;;26.00;46.50;;;;;;3551455;40;20040;-68
2021/06/05 08:51:41;;;;;;;3.40;2.70;;;26.20;46.30;;;;;;3552574;40;20046;-68
2021/06/05 08:54:45;;;;;;;4.95;3.08;;;26.30;46.40;;;;;;3555442;40;20049;-68
2021/06/05 08:57:34;;;;;;;5.13;3.10;;;26.30;45.90;;;;;;3549617;40;20045;-68
2021/06/05 09:00:31;;;;;;;5.13;2.90;;;26.40;46.00;;;;;;3558066;40;20340;-68
2021/06/05 09:03:04;;;;;;;6.28;3.00;;;26.60;45.60;;;;;;3559728;40;20041;-69
2021/06/05 09:05:34;;;;;;;6.03;2.97;;;26.60;46.10;;;;;;3558200;40;20060;-69
2021/06/05 09:08:02;;;;;;;5.68;2.83;;;26.80;46.50;;;;;;3564783;40;20042;-69
2021/06/05 09:10:29;;;;;;;14.40;3.10;;;26.60;44.30;;;;;;3555113;40;20141;-70
2021/06/05 09:12:55;;;;;;;5.55;3.00;;;26.60;45.70;;;;;;3555177;40;20025;-67
2021/06/05 09:15:24;;;;;;;5.03;2.90;;;26.60;44.60;;;;;;3557620;40;20044;-68
2021/06/05 09:17:53;;;;;;;3.45;2.65;;;26.60;45.30;;;;;;3552024;40;20054;-70
2021/06/05 09:20:34;;;;;;;3.65;2.50;;;26.60;45.30;;;;;;3550933;40;20111;-71
2021/06/05 09:23:01;;;;;;;4.43;2.83;;;26.70;45.50;;;;;;3553731;40;20894;-70
2021/06/05 09:25:30;;;;;;;3.30;2.78;;;26.80;44.50;;;;;;3552270;40;20050;-69
2021/06/05 09:28:26;;;;;;;3.38;3.08;;;26.80;44.60;;;;;;3553077;40;20097;-70
2021/06/05 09:31:10;;;;;;;4.53;2.80;;;26.80;45.80;;;;;;3553856;40;20049;-70
2021/06/05 09:33:36;;;;;;;3.95;3.00;;;26.80;45.00;;;;;;3554736;40;20693;-69
2021/06/05 09:36:19;;;;;;;4.18;2.90;;;26.80;45.30;;;;;;3566720;40;20053;-69
2021/06/05 09:38:54;;;;;;;7.00;3.28;;;26.90;45.20;;;;;;3562100;40;20652;-69
2021/06/05 09:41:25;;;;;;;11.32;4.35;;;26.90;44.60;;;;;;3551064;40;20030;-69
2021/06/05 09:43:53;;;;;;;22.88;7.05;;;26.90;44.90;;;;;;3553568;40;20034;-70
2021/06/05 09:46:19;;;;;;;11.00;4.30;;;26.90;45.20;;;;;;3555665;40;20430;-71
2021/06/05 09:48:47;;;;;;;8.30;3.58;;;27.00;44.70;;;;;;3562087;40;20049;-71
2021/06/05 09:51:34;;;;;;;6.22;3.15;;;27.10;44.90;;;;;;3552855;40;20034;-70
2021/06/05 09:54:52;;;;;;;6.07;2.90;;;27.20;44.80;;;;;;3552155;40;20625;-70
2021/06/05 09:57:29;;;;;;;3.40;3.05;;;27.20;44.20;;;;;;3533219;40;20191;-70
2021/06/05 10:00:13;;;;;;;4.10;2.90;;;27.20;44.30;;;;;;3558422;40;20030;-70
2021/06/05 10:02:47;;;;;;;3.30;3.00;;;27.30;44.40;;;;;;3553627;40;20083;-70
2021/06/05 10:05:29;;;;;;;4.28;2.70;;;27.30;44.00;;;;;;3552636;40;20288;-70
2021/06/05 10:08:01;;;;;;;2.88;2.67;;;27.20;44.50;;;;;;3553540;40;20037;-70
2021/06/05 10:10:38;;;;;;;5.15;3.28;;;27.30;44.80;;;;;;3553124;40;20673;-70
2021/06/05 10:13:10;;;;;;;6.10;2.78;;;27.40;43.40;;;;;;3553408;40;20319;-70
2021/06/05 10:15:57;;;;;;;3.35;2.78;;;27.30;43.30;;;;;;3550649;40;20300;-69
2021/06/05 10:18:36;;;;;;;6.90;2.97;;;27.20;43.70;;;;;;3552402;40;20041;-69
2021/06/05 10:21:15;;;;;;;3.67;2.92;;;27.20;44.50;;;;;;3556314;40;20037;-69
2021/06/05 10:23:48;;;;;;;5.03;3.08;;;27.20;45.50;;;;;;3560633;40;20041;-69
2021/06/05 10:26:23;;;;;;;3.72;2.92;;;27.50;44.20;;;;;;3552759;40;20038;-69
2021/06/05 10:29:09;;;;;;;2.97;2.70;;;27.70;44.10;;;;;;3552392;40;20135;-69
2021/06/05 10:31:37;;;;;;;3.22;2.75;;;27.70;43.80;;;;;;3553730;40;20062;-70
2021/06/05 10:34:13;;;;;;;6.35;3.25;;;27.80;43.70;;;;;;3554310;40;20052;-70
2021/06/05 10:36:49;;;;;;;3.30;3.00;;;27.80;43.10;;;;;;3557555;40;20029;-70
2021/06/05 10:39:29;;;;;;;4.75;3.15;;;27.80;42.60;;;;;;3556408;40;20034;-69
2021/06/05 10:42:02;;;;;;;6.78;3.15;;;27.80;42.60;;;;;;3552237;40;20716;-70
2021/06/05 10:44:28;;;;;;;4.22;3.15;;;27.90;42.30;;;;;;3553287;40;20021;-69
2021/06/05 10:47:06;;;;;;;4.72;3.90;;;28.00;43.10;;;;;;3554549;40;20029;-69
2021/06/05 10:49:42;;;;;;;6.30;3.13;;;28.00;42.90;;;;;;3561191;40;20675;-67
2021/06/05 10:52:24;;;;;;;4.68;3.20;;;28.00;42.80;;;;;;3550455;40;20038;-69
2021/06/05 10:54:53;;;;;;;3.25;2.95;;;28.40;42.20;;;;;;3559329;40;20044;-72
2021/06/05 10:57:18;;;;;;;3.50;3.20;;;28.80;41.40;;;;;;3556377;40;20513;-71
2021/06/05 10:59:52;;;;;;;3.78;2.80;;;28.80;41.20;;;;;;3554992;40;20044;-70
2021/06/05 11:02:48;;;;;;;3.45;3.15;;;28.60;41.10;;;;;;3552444;40;20745;-69
2021/06/05 11:05:16;;;;;;;3.40;2.70;;;28.40;42.50;;;;;;3554750;40;20106;-71
2021/06/05 11:07:44;;;;;;;5.57;2.88;;;28.30;42.20;;;;;;3552264;40;20120;-68
2021/06/05 11:10:10;;;;;;;3.20;2.65;;;28.10;41.80;;;;;;3550048;40;20703;-69
2021/06/05 11:12:36;;;;;;;5.18;2.75;;;28.00;43.30;;;;;;3551437;40;20040;-69
2021/06/05 11:15:03;;;;;;;2.97;2.70;;;28.00;41.90;;;;;;3552229;40;20045;-75
2021/06/05 11:17:40;;;;;;;4.63;2.97;;;28.00;42.00;;;;;;3552625;40;20401;-72
2021/06/05 11:20:06;;;;;;;2.88;2.63;;;28.10;42.60;;;;;;3553518;40;20039;-72
2021/06/05 11:22:50;;;;;;;3.00;2.70;;;28.00;42.00;;;;;;3552528;40;20022;-73
2021/06/05 11:25:16;;;;;;;3.38;2.90;;;28.00;42.60;;;;;;3553739;40;20041;-74
2021/06/05 11:27:41;;;;;;;6.22;2.95;;;27.90;42.40;;;;;;3549947;40;20041;-70
2021/06/05 11:30:27;;;;;;;3.40;2.92;;;28.00;42.60;;;;;;3550117;40;20062;-69
2021/06/05 11:33:08;;;;;;;;;;;28.10;41.40;;;;;;3551597;40;20036;-66
2021/06/05 11:35:59;;;;;;;4.35;2.67;;;28.20;42.10;;;;;;3556258;40;19933;-70
2021/06/05 11:38:24;;;;;;;3.28;2.97;;;28.20;42.20;;;;;;3554450;40;20091;-70
2021/06/05 11:41:02;;;;;;;3.60;3.15;;;28.30;41.50;;;;;;3553055;40;20030;-69
2021/06/05 11:43:27;;;;;;;2.90;2.63;;;28.40;42.40;;;;;;3557629;40;20296;-69
2021/06/05 11:46:17;;;;;;;3.70;2.70;;;28.50;41.70;;;;;;3564284;40;20066;-70
2021/06/05 11:48:54;;;;;;;4.00;3.03;;;28.50;42.30;;;;;;3557839;40;20030;-70
2021/06/05 11:51:20;;;;;;;3.75;2.90;;;28.60;41.90;;;;;;3557573;40;20025;-69
2021/06/05 11:54:02;;;;;;;3.90;3.60;;;28.70;42.30;;;;;;3560907;40;20030;-69
2021/06/05 11:56:42;;;;;;;4.30;2.60;;;28.70;40.90;;;;;;3554864;40;20064;-68
2021/06/05 11:59:31;;;;;;;3.88;2.90;;;28.60;40.80;;;;;;3554752;40;20042;-70
2021/06/05 12:02:10;;;;;;;3.97;2.78;;;28.50;41.50;;;;;;3557716;40;20037;-69
2021/06/05 12:04:42;;;;;;;2.65;2.40;;;28.50;40.80;;;;;;3552003;40;20032;-68
2021/06/05 12:07:29;;;;;;;4.07;3.03;;;28.40;40.10;;;;;;3557792;40;20034;-69
2021/06/05 12:09:58;;;;;;;3.03;2.60;;;28.30;40.30;;;;;;3551505;40;20037;-69
2021/06/05 12:12:31;;;;;;;5.07;2.78;;;28.30;41.30;;;;;;3555594;40;20396;-69
2021/06/05 12:15:36;;;;;;;4.60;2.90;;;28.40;41.50;;;;;;3555172;40;20034;-70
2021/06/05 12:18:20;;;;;;;4.38;2.90;;;28.40;41.20;;;;;;3544717;40;20029;-70
2021/06/05 12:20:49;;;;;;;4.40;2.70;;;28.40;41.90;;;;;;3551407;40;20049;-70
2021/06/05 12:23:27;;;;;;;2.92;2.47;;;28.50;41.30;;;;;;3550400;40;20800;-70
2021/06/05 12:26:14;;;;;;;3.45;2.72;;;28.50;41.70;;;;;;3552439;40;20054;-70
2021/06/05 12:28:46;;;;;;;2.90;2.60;;;28.40;40.60;;;;;;3553971;40;20068;-68
2021/06/05 12:31:19;;;;;;;3.00;2.78;;;28.50;42.00;;;;;;3564187;40;20069;-69
2021/06/05 12:34:07;;;;;;;3.40;2.90;;;28.60;41.40;;;;;;3562567;40;20032;-69
2021/06/05 12:36:39;;;;;;;3.85;2.80;;;28.50;40.70;;;;;;3562944;40;20063;-69
2021/06/05 12:39:41;;;;;;;5.40;2.60;;;28.50;40.50;;;;;;3558492;40;20038;-69
2021/06/05 12:42:09;;;;;;;3.42;2.50;;;28.60;41.10;;;;;;3560603;40;20040;-69
2021/06/05 12:44:37;;;;;;;2.85;2.55;;;28.40;40.70;;;;;;3550572;40;20691;-69
2021/06/05 12:47:08;;;;;;;3.00;2.80;;;28.30;40.10;;;;;;3551814;40;20042;-68
2021/06/05 12:49:36;;;;;;;3.05;2.75;;;28.10;40.50;;;;;;3552846;40;20038;-69
2021/06/05 12:52:06;;;;;;;4.15;2.45;;;28.00;40.20;;;;;;3562411;40;20037;-69
2021/06/05 12:54:39;;;;;;;5.10;2.72;;;28.00;40.60;;;;;;3554023;40;20077;-68
2021/06/05 12:57:35;;;;;;;4.78;2.47;;;28.00;41.40;;;;;;3556765;40;20041;-69
2021/06/05 13:00:31;;;;;;;5.25;2.80;;;28.10;40.60;;;;;;3557602;40;20021;-69
2021/06/05 13:03:07;;;;;;;3.13;2.70;;;28.20;41.10;;;;;;3559712;40;20054;-70
2021/06/05 13:05:36;;;;;;;3.45;2.90;;;28.40;40.50;;;;;;3558907;40;20148;-69
2021/06/05 13:08:18;;;;;;;4.18;2.60;;;28.40;40.80;;;;;;3557004;40;20631;-69